createdAt,value
2022-09-07T00:01:05.936Z,15.15
2022-09-07T00:03:34.360Z,15.15
2022-09-07T00:06:07.828Z,15.14
2022-09-07T00:08:35.994Z,15.09
2022-09-07T00:11:06.140Z,15.08
2022-09-07T00:13:36.448Z,15.07
2022-09-07T00:16:10.201Z,15.03
2022-09-07T00:18:40.340Z,15.02
2022-09-07T00:21:12.761Z,15.03
2022-09-07T00:23:40.504Z,15.02
2022-09-07T00:26:11.573Z,15.02
2022-09-07T00:28:39.641Z,15.04
2022-09-07T00:31:19.063Z,15.04
2022-09-07T00:33:49.156Z,15.02
2022-09-07T00:36:18.547Z,15.00
2022-09-07T00:38:46.628Z,14.99
2022-09-07T00:41:15.026Z,15.00
2022-09-07T00:43:46.935Z,15.03
2022-09-07T00:46:26.886Z,15.04
2022-09-07T00:49:08.984Z,15.05
2022-09-07T00:51:42.268Z,15.06
2022-09-07T00:54:15.539Z,15.09
2022-09-07T00:56:45.692Z,15.10
2022-09-07T00:59:19.662Z,15.11
2022-09-07T01:01:47.551Z,15.10
2022-09-07T01:04:16.346Z,15.11
2022-09-07T01:06:44.456Z,15.14
2022-09-07T01:09:16.876Z,15.16
2022-09-07T01:11:50.868Z,15.13
2022-09-07T01:14:23.090Z,15.11
2022-09-07T01:16:59.614Z,15.11
2022-09-07T01:19:27.178Z,15.07
2022-09-07T01:22:35.503Z,15.02
2022-09-07T01:25:11.011Z,14.98
2022-09-07T01:27:47.657Z,14.92
2022-09-07T01:30:19.537Z,14.91
2022-09-07T01:32:56.517Z,14.87
2022-09-07T01:35:39.120Z,14.84
2022-09-07T01:38:12.630Z,14.81
2022-09-07T01:40:57.495Z,14.79
2022-09-07T01:43:44.319Z,14.76
2022-09-07T01:46:34.809Z,14.69
2022-09-07T01:49:19.422Z,14.66
2022-09-07T01:51:55.488Z,14.68
2022-09-07T01:54:35.390Z,14.69
2022-09-07T01:57:08.351Z,14.71
2022-09-07T01:59:44.729Z,14.70
2022-09-07T02:02:18.211Z,14.68
2022-09-07T02:04:55.082Z,14.66
2022-09-07T02:07:28.883Z,14.62
2022-09-07T02:10:02.780Z,14.58
2022-09-07T02:12:40.593Z,14.57
2022-09-07T02:15:20.466Z,14.56
2022-09-07T02:17:58.633Z,14.55
2022-09-07T02:20:32.186Z,14.55
2022-09-07T02:23:04.782Z,14.56
2022-09-07T02:25:45.369Z,14.54
2022-09-07T02:28:17.817Z,14.53
2022-09-07T02:30:45.939Z,14.52
2022-09-07T02:33:13.869Z,14.51
2022-09-07T02:35:41.618Z,14.47
2022-09-07T02:38:09.253Z,14.45
2022-09-07T02:40:36.837Z,14.42
2022-09-07T02:43:07.788Z,14.38
2022-09-07T02:46:12.753Z,14.34
2022-09-07T02:48:56.382Z,14.31
2022-09-07T02:51:29.709Z,14.27
2022-09-07T02:54:12.304Z,14.24
2022-09-07T02:56:52.275Z,14.21
2022-09-07T02:59:49.146Z,14.20
2022-09-07T03:02:43.397Z,14.21
2022-09-07T03:05:36.820Z,14.19
2022-09-07T03:08:11.907Z,14.15
2022-09-07T03:10:41.100Z,14.13
2022-09-07T03:13:09.131Z,14.11
2022-09-07T03:15:36.678Z,14.10
2022-09-07T03:18:04.391Z,14.12
2022-09-07T03:20:31.917Z,14.16
2022-09-07T03:22:59.535Z,14.23
2022-09-07T03:25:27.045Z,14.30
2022-09-07T03:27:54.652Z,14.34
2022-09-07T03:30:22.165Z,14.39
2022-09-07T03:32:49.848Z,14.43
2022-09-07T03:35:17.875Z,14.44
2022-09-07T03:37:45.425Z,14.48
2022-09-07T03:40:14.960Z,14.48
2022-09-07T03:42:43.167Z,14.47
2022-09-07T03:45:11.201Z,14.48
2022-09-07T03:47:39.219Z,14.53
2022-09-07T03:50:07.737Z,14.55
2022-09-07T03:52:36.349Z,14.56
2022-09-07T03:55:05.076Z,14.58
2022-09-07T03:57:32.633Z,14.58
2022-09-07T04:00:00.223Z,14.55
2022-09-07T04:02:27.994Z,14.55
2022-09-07T04:04:55.552Z,14.57
2022-09-07T04:07:23.142Z,14.57
2022-09-07T04:09:51.527Z,14.62
2022-09-07T04:12:19.119Z,14.64
2022-09-07T04:14:46.673Z,14.65
2022-09-07T04:17:14.291Z,14.63
2022-09-07T04:19:41.879Z,14.63
2022-09-07T04:22:09.423Z,14.63
2022-09-07T04:24:37.446Z,14.66
2022-09-07T04:27:04.975Z,14.67
2022-09-07T04:29:32.460Z,14.68
2022-09-07T04:32:00.094Z,14.71
2022-09-07T04:34:27.640Z,14.73
2022-09-07T04:36:55.179Z,14.75
2022-09-07T04:39:23.067Z,14.78
2022-09-07T04:41:50.598Z,14.81
2022-09-07T04:44:18.132Z,14.83
2022-09-07T04:46:45.752Z,14.84
2022-09-07T04:49:13.813Z,14.86
2022-09-07T04:51:42.989Z,14.89
2022-09-07T04:54:11.132Z,14.94
2022-09-07T04:56:38.625Z,14.98
2022-09-07T04:59:06.289Z,14.99
2022-09-07T05:01:33.946Z,15.00
2022-09-07T05:04:02.582Z,14.98
2022-09-07T05:06:32.222Z,14.97
2022-09-07T05:09:00.335Z,14.94
2022-09-07T05:11:29.875Z,14.92
2022-09-07T05:13:59.826Z,14.87
2022-09-07T05:16:28.108Z,14.85
2022-09-07T05:19:01.696Z,14.84
2022-09-07T05:21:32.122Z,14.80
2022-09-07T05:24:00.896Z,14.77
2022-09-07T05:26:31.541Z,14.77
2022-09-07T05:31:51.890Z,14.80
2022-09-07T05:34:35.018Z,14.80
2022-09-07T05:37:03.350Z,14.78
2022-09-07T05:39:31.477Z,14.78
2022-09-07T05:41:59.131Z,14.78
2022-09-07T05:47:10.127Z,14.77
2022-09-07T05:49:37.699Z,14.75
2022-09-07T05:52:09.690Z,14.75
2022-09-07T05:54:37.747Z,14.74
2022-09-07T05:57:05.552Z,14.76
2022-09-07T05:59:33.686Z,14.75
2022-09-07T06:02:01.527Z,14.78
2022-09-07T06:04:29.150Z,14.82
2022-09-07T06:07:20.623Z,14.87
2022-09-07T06:12:32.158Z,15.00
2022-09-07T06:15:01.624Z,15.05
2022-09-07T06:17:29.683Z,15.10
2022-09-07T06:19:57.806Z,15.10
2022-09-07T06:22:28.931Z,15.11
2022-09-07T06:24:59.108Z,15.10
2022-09-07T06:27:26.813Z,15.10
2022-09-07T06:29:54.642Z,15.11
2022-09-07T06:35:11.509Z,15.16
2022-09-07T06:37:39.352Z,15.18
2022-09-07T06:40:10.702Z,15.21
2022-09-07T06:42:38.852Z,15.23
2022-09-07T06:45:06.954Z,15.25
2022-09-07T06:47:34.851Z,15.27
2022-09-07T06:50:02.443Z,15.27
2022-09-07T06:55:17.864Z,15.21
2022-09-07T06:57:45.461Z,15.25
2022-09-07T07:00:13.580Z,15.30
2022-09-07T07:02:41.151Z,15.33
2022-09-07T07:05:09.294Z,15.36
2022-09-07T07:07:36.795Z,15.40
2022-09-07T07:10:04.768Z,15.45
2022-09-07T07:15:04.793Z,15.63
2022-09-07T07:17:32.416Z,15.70
2022-09-07T07:19:59.995Z,15.74
2022-09-07T07:22:45.996Z,15.78
2022-09-07T07:25:15.090Z,15.83
2022-09-07T07:27:43.011Z,15.89
2022-09-07T07:30:11.196Z,16.00
2022-09-07T07:32:39.398Z,16.08
2022-09-07T07:35:12.004Z,16.20
2022-09-07T07:37:39.825Z,16.34
2022-09-07T07:42:41.843Z,16.47
2022-09-07T07:47:58.620Z,16.49
2022-09-07T07:50:34.134Z,16.53
2022-09-07T07:55:49.816Z,16.60
2022-09-07T07:58:17.660Z,16.69
2022-09-07T08:01:00.699Z,16.80
2022-09-07T08:03:29.257Z,16.95
2022-09-07T08:05:57.020Z,16.99
2022-09-07T08:08:24.687Z,17.02
2022-09-07T08:10:53.069Z,17.02
2022-09-07T08:13:21.631Z,17.02
2022-09-07T08:15:49.306Z,17.02
2022-09-07T08:18:17.794Z,17.10
2022-09-07T08:20:45.316Z,17.18
2022-09-07T08:23:12.876Z,17.27
2022-09-07T08:25:50.675Z,17.38
2022-09-07T08:28:19.001Z,17.50
2022-09-07T08:30:46.506Z,17.67
2022-09-07T08:33:14.297Z,17.82
2022-09-07T08:35:41.840Z,17.89
2022-09-07T08:38:09.620Z,17.93
2022-09-07T08:40:38.702Z,17.95
2022-09-07T08:43:28.801Z,17.87
2022-09-07T08:46:04.830Z,17.83
2022-09-07T08:48:35.239Z,17.82
2022-09-07T08:51:24.585Z,17.77
2022-09-07T08:53:52.610Z,17.77
2022-09-07T08:56:39.302Z,17.79
2022-09-07T08:59:16.641Z,17.83
2022-09-07T09:02:27.000Z,17.82
2022-09-07T09:04:32.673Z,17.86
2022-09-07T09:07:10.061Z,17.89
2022-09-07T09:09:40.449Z,17.97
2022-09-07T09:12:32.353Z,18.04
2022-09-07T09:15:23.542Z,18.17
2022-09-07T09:18:14.945Z,18.38
2022-09-07T09:21:00.124Z,18.66
2022-09-07T09:23:34.475Z,18.89
2022-09-07T09:26:10.535Z,19.08
2022-09-07T09:28:39.809Z,19.16
2022-09-07T09:31:17.204Z,19.23
2022-09-07T09:34:05.032Z,19.37
2022-09-07T09:36:44.491Z,19.49
2022-09-07T09:39:35.231Z,19.44
2022-09-07T09:42:11.949Z,19.44
2022-09-07T09:44:40.225Z,19.48
2022-09-07T09:47:30.237Z,19.54
2022-09-07T09:50:01.569Z,19.60
2022-09-07T09:52:41.772Z,19.62
2022-09-07T09:55:34.275Z,19.53
2022-09-07T10:01:25.256Z,19.43
2022-09-07T10:06:26.584Z,19.29
2022-09-07T10:08:59.830Z,19.28
2022-09-07T10:12:07.652Z,19.22
2022-09-07T10:14:47.384Z,19.18
2022-09-07T10:17:25.589Z,19.08
2022-09-07T10:19:54.296Z,18.97
2022-09-07T10:22:30.110Z,18.81
2022-09-07T10:24:58.478Z,18.71
2022-09-07T10:27:34.253Z,18.63
2022-09-07T10:30:06.866Z,18.60
2022-09-07T10:32:37.406Z,18.50
2022-09-07T10:35:07.730Z,18.44
2022-09-07T10:37:51.472Z,18.51
2022-09-07T10:40:35.343Z,18.62
2022-09-07T10:43:21.411Z,18.71
2022-09-07T10:45:52.265Z,18.86
2022-09-07T10:48:35.836Z,18.90
2022-09-07T10:51:14.330Z,18.98
2022-09-07T10:53:45.158Z,18.96
2022-09-07T10:56:26.800Z,18.95
2022-09-07T10:59:03.908Z,19.08
2022-09-07T11:01:40.837Z,19.45
2022-09-07T11:04:26.960Z,19.81
2022-09-07T11:07:23.872Z,19.95
2022-09-07T11:10:13.068Z,19.90
2022-09-07T11:12:44.474Z,19.85
2022-09-07T11:15:23.775Z,19.92
2022-09-07T11:18:17.981Z,20.51
2022-09-07T11:20:55.100Z,21.44
2022-09-07T11:23:33.091Z,21.84
2022-09-07T11:26:39.628Z,22.04
2022-09-07T11:29:36.212Z,22.08
2022-09-07T11:32:07.428Z,22.03
2022-09-07T11:35:00.142Z,22.18
2022-09-07T11:37:46.603Z,22.19
2022-09-07T11:40:21.657Z,22.07
2022-09-07T11:42:59.764Z,21.85
2022-09-07T11:45:52.465Z,21.68
2022-09-07T11:48:31.047Z,21.64
2022-09-07T11:51:24.712Z,21.51
2022-09-07T11:54:02.362Z,21.29
2022-09-07T11:56:36.924Z,21.05
2022-09-07T11:59:07.038Z,20.83
2022-09-07T12:01:58.320Z,20.62
2022-09-07T12:04:44.298Z,20.52
2022-09-07T12:07:34.737Z,20.85
2022-09-07T12:10:28.274Z,21.29
2022-09-07T12:12:56.763Z,22.71
2022-09-07T12:16:05.772Z,23.21
2022-09-07T12:19:08.693Z,23.39
2022-09-07T12:21:42.405Z,23.60
2022-09-07T12:24:32.402Z,24.42
2022-09-07T12:27:01.368Z,24.92
2022-09-07T12:29:30.821Z,24.71
2022-09-07T12:32:52.610Z,24.46
2022-09-07T12:34:57.961Z,24.00
2022-09-07T12:37:40.071Z,24.01
2022-09-07T12:40:33.311Z,23.69
2022-09-07T12:43:13.141Z,23.27
2022-09-07T12:45:40.635Z,22.99
2022-09-07T12:48:17.132Z,22.75
2022-09-07T12:51:03.260Z,22.48
2022-09-07T12:56:26.201Z,21.77
2022-09-07T12:59:08.097Z,21.52
2022-09-07T13:01:51.555Z,21.38
2022-09-07T13:04:53.260Z,21.41
2022-09-07T13:08:07.207Z,21.43
2022-09-07T13:10:39.436Z,21.49
2022-09-07T13:16:29.537Z,21.26
2022-09-07T13:19:01.995Z,21.21
2022-09-07T13:21:33.144Z,21.19
2022-09-07T13:27:11.644Z,21.44
2022-09-07T13:29:46.668Z,21.63
2022-09-07T13:33:07.999Z,21.99
2022-09-07T13:35:25.436Z,22.55
2022-09-07T13:37:59.584Z,22.98
2022-09-07T13:40:30.332Z,23.31
2022-09-07T13:42:59.352Z,23.28
2022-09-07T13:45:36.675Z,23.14
2022-09-07T13:48:14.819Z,22.67
2022-09-07T13:50:52.384Z,22.08
2022-09-07T13:53:36.378Z,21.58
2022-09-07T13:56:41.402Z,21.13
2022-09-07T13:59:23.062Z,20.78
2022-09-07T14:01:51.555Z,20.36
2022-09-07T14:04:35.478Z,20.11
2022-09-07T14:07:02.988Z,19.97
2022-09-07T14:09:30.808Z,19.91
2022-09-07T14:11:58.741Z,19.87
2022-09-07T14:14:31.053Z,19.82
2022-09-07T14:17:02.044Z,19.75
2022-09-07T14:19:39.970Z,19.73
2022-09-07T14:22:22.315Z,19.76
2022-09-07T14:24:55.148Z,19.81
2022-09-07T14:27:33.069Z,19.90
2022-09-07T14:30:20.208Z,19.92
2022-09-07T14:32:53.166Z,19.96
2022-09-07T14:35:24.695Z,20.03
2022-09-07T14:37:53.316Z,20.10
2022-09-07T14:40:23.996Z,20.18
2022-09-07T14:42:54.138Z,20.28
2022-09-07T14:45:26.376Z,20.38
2022-09-07T14:47:55.635Z,20.58
2022-09-07T14:50:27.339Z,20.64
2022-09-07T14:55:46.434Z,20.88
2022-09-07T14:58:13.926Z,21.02
2022-09-07T15:00:45.994Z,21.12
2022-09-07T15:03:35.855Z,21.11
2022-09-07T15:06:03.801Z,21.05
2022-09-07T15:08:45.606Z,20.93
2022-09-07T15:11:39.983Z,20.81
2022-09-07T15:14:18.041Z,20.64
2022-09-07T15:19:50.473Z,20.59
2022-09-07T15:22:19.271Z,20.66
2022-09-07T15:24:48.132Z,20.78
2022-09-07T15:27:30.053Z,20.97
2022-09-07T15:29:57.629Z,21.12
2022-09-07T15:32:25.217Z,21.15
2022-09-07T15:34:52.851Z,21.16
2022-09-07T15:41:10.581Z,21.13
2022-09-07T15:43:34.144Z,21.14
2022-09-07T15:46:03.555Z,21.19
2022-09-07T15:48:31.354Z,21.20
2022-09-07T15:52:04.681Z,21.19
2022-09-07T15:57:47.696Z,20.85
2022-09-07T15:59:31.685Z,20.69
2022-09-07T16:01:59.793Z,20.52
2022-09-07T16:04:27.635Z,20.44
2022-09-07T16:06:55.280Z,20.40
2022-09-07T16:09:23.320Z,20.30
2022-09-07T16:11:51.297Z,20.25
2022-09-07T16:14:19.046Z,20.21
2022-09-07T16:19:36.060Z,20.09
2022-09-07T16:22:04.022Z,20.01
2022-09-07T16:24:31.694Z,19.93
2022-09-07T16:26:59.228Z,19.90
2022-09-07T16:29:26.789Z,19.85
2022-09-07T16:34:41.857Z,19.78
2022-09-07T16:37:09.363Z,19.72
2022-09-07T16:39:37.224Z,19.68
2022-09-07T16:42:05.052Z,19.59
2022-09-07T16:44:35.061Z,19.53
2022-09-07T16:47:04.434Z,19.45
2022-09-07T16:49:32.203Z,19.43
2022-09-07T16:51:59.849Z,19.42
2022-09-07T16:54:27.413Z,19.38
2022-09-07T16:56:54.924Z,19.38
2022-09-07T16:59:26.806Z,19.40
2022-09-07T17:01:54.458Z,19.43
2022-09-07T17:04:22.236Z,19.41
2022-09-07T17:06:52.049Z,19.41
2022-09-07T17:09:20.640Z,19.41
2022-09-07T17:11:48.209Z,19.43
2022-09-07T17:14:16.008Z,19.44
2022-09-07T17:16:44.230Z,19.42
2022-09-07T17:19:30.044Z,19.42
2022-09-07T17:21:59.812Z,19.39
2022-09-07T17:24:27.458Z,19.39
2022-09-07T17:26:55.095Z,19.34
2022-09-07T17:29:22.692Z,19.32
2022-09-07T17:34:37.792Z,19.26
2022-09-07T17:37:05.467Z,19.26
2022-09-07T17:39:33.043Z,19.30
2022-09-07T17:42:01.109Z,19.26
2022-09-07T17:44:33.301Z,19.19
2022-09-07T17:47:03.645Z,19.11
2022-09-07T17:49:31.317Z,19.04
2022-09-07T17:52:01.057Z,18.98
2022-09-07T17:54:29.043Z,18.94
2022-09-07T17:56:57.013Z,18.89
2022-09-07T18:02:13.964Z,18.80
2022-09-07T18:04:42.725Z,18.77
2022-09-07T18:07:10.571Z,18.74
2022-09-07T18:09:38.318Z,18.73
2022-09-07T18:12:06.447Z,18.68
2022-09-07T18:14:34.045Z,18.62
2022-09-07T18:17:01.908Z,18.59
2022-09-07T18:19:29.481Z,18.56
2022-09-07T18:21:57.013Z,18.52
2022-09-07T18:24:24.666Z,18.50
2022-09-07T18:26:53.930Z,18.46
2022-09-07T18:29:33.980Z,18.44
2022-09-07T18:32:07.497Z,18.44
2022-09-07T18:34:36.488Z,18.43
2022-09-07T18:37:04.706Z,18.46
2022-09-07T18:39:33.574Z,18.44
2022-09-07T18:42:01.501Z,18.42
2022-09-07T18:47:23.287Z,18.29
2022-09-07T18:49:55.543Z,18.22
2022-09-07T18:55:10.969Z,18.15
2022-09-07T18:57:38.634Z,18.13
2022-09-07T19:00:07.960Z,18.10
2022-09-07T19:02:35.877Z,18.07
2022-09-07T19:07:51.899Z,18.00
2022-09-07T19:10:19.504Z,17.97
2022-09-07T19:12:47.246Z,17.94
2022-09-07T19:15:15.026Z,17.90
2022-09-07T19:17:42.887Z,17.88
2022-09-07T19:20:10.724Z,17.89
2022-09-07T19:22:39.047Z,17.87
2022-09-07T19:25:06.770Z,17.83
2022-09-07T19:27:34.395Z,17.79
2022-09-07T19:30:01.992Z,17.77
2022-09-07T19:32:29.857Z,17.76
2022-09-07T19:34:57.418Z,17.73
2022-09-07T19:37:25.767Z,17.71
2022-09-07T19:39:56.959Z,17.68
2022-09-07T19:42:25.601Z,17.68
2022-09-07T19:44:54.212Z,17.65
2022-09-07T19:47:23.330Z,17.63
2022-09-07T19:49:52.314Z,17.62
2022-09-07T19:52:19.866Z,17.60
2022-09-07T19:54:47.423Z,17.58
2022-09-07T19:57:14.926Z,17.52
2022-09-07T19:59:42.489Z,17.49
2022-09-07T20:02:10.491Z,17.49
2022-09-07T20:04:38.161Z,17.49
2022-09-07T20:07:06.668Z,17.50
2022-09-07T20:09:34.196Z,17.51
2022-09-07T20:12:03.833Z,17.51
2022-09-07T20:14:31.361Z,17.50
2022-09-07T20:16:58.951Z,17.48
2022-09-07T20:19:26.587Z,17.48
2022-09-07T20:21:57.275Z,17.45
2022-09-07T20:24:25.273Z,17.42
2022-09-07T20:26:52.793Z,17.38
2022-09-07T20:29:28.921Z,17.36
2022-09-07T20:32:01.230Z,17.32
2022-09-07T20:34:29.239Z,17.27
2022-09-07T20:36:57.102Z,17.24
2022-09-07T20:39:24.827Z,17.20
2022-09-07T20:41:52.548Z,17.16
2022-09-07T20:44:20.234Z,17.15
2022-09-07T20:46:47.837Z,17.16
2022-09-07T20:49:15.461Z,17.14
2022-09-07T20:51:43.012Z,17.12
2022-09-07T20:54:10.801Z,17.10
2022-09-07T20:56:38.280Z,17.12
2022-09-07T20:59:06.892Z,17.13
2022-09-07T21:01:35.250Z,17.16
2022-09-07T21:04:04.095Z,17.16
2022-09-07T21:06:32.084Z,17.16
2022-09-07T21:09:00.092Z,17.15
2022-09-07T21:11:33.193Z,17.16
2022-09-07T21:14:00.750Z,17.16
2022-09-07T21:16:29.000Z,17.18
2022-09-07T21:18:58.330Z,17.14
2022-09-07T21:21:27.424Z,17.11
2022-09-07T21:23:56.936Z,17.05
2022-09-07T21:26:25.509Z,17.03
2022-09-07T21:28:58.604Z,17.02
2022-09-07T21:31:27.691Z,17.03
2022-09-07T21:33:57.199Z,17.03
2022-09-07T21:36:25.604Z,17.03
2022-09-07T21:38:54.348Z,17.03
2022-09-07T21:41:23.986Z,17.02
2022-09-07T21:43:59.142Z,17.05
2022-09-07T21:46:29.371Z,17.07
2022-09-07T21:48:58.360Z,17.07
2022-09-07T21:51:27.411Z,17.05
2022-09-07T21:53:56.751Z,17.02
2022-09-07T21:56:24.587Z,17.00
2022-09-07T21:58:56.615Z,16.98
2022-09-07T22:01:26.159Z,16.97
2022-09-07T22:03:59.691Z,16.95
2022-09-07T22:06:28.251Z,16.92
2022-09-07T22:08:56.086Z,16.89
2022-09-07T22:11:25.080Z,16.84
2022-09-07T22:13:57.623Z,16.81
2022-09-07T22:16:25.831Z,16.81
2022-09-07T22:18:53.747Z,16.81
2022-09-07T22:21:28.631Z,16.80
2022-09-07T22:24:01.848Z,16.81
2022-09-07T22:26:32.785Z,16.81
2022-09-07T22:29:00.453Z,16.81
2022-09-07T22:31:30.626Z,16.82
2022-09-07T22:34:00.091Z,16.80
2022-09-07T22:36:32.903Z,16.78
2022-09-07T22:39:03.923Z,16.75
2022-09-07T22:41:34.075Z,16.74
2022-09-07T22:44:01.830Z,16.73
2022-09-07T22:46:31.227Z,16.75
2022-09-07T22:48:59.321Z,16.77
2022-09-07T22:51:27.513Z,16.76
2022-09-07T22:53:56.050Z,16.77
2022-09-07T22:56:27.174Z,16.74
2022-09-07T22:58:57.607Z,16.72
2022-09-07T23:01:26.430Z,16.73
2022-09-07T23:03:54.552Z,16.74
2022-09-07T23:06:29.004Z,16.76
2022-09-07T23:08:58.749Z,16.75
2022-09-07T23:11:27.104Z,16.75
2022-09-07T23:13:57.083Z,16.75
2022-09-07T23:16:26.422Z,16.75
2022-09-07T23:18:55.524Z,16.74
2022-09-07T23:21:23.059Z,16.70
2022-09-07T23:23:52.644Z,16.70
2022-09-07T23:26:21.551Z,16.72
2022-09-07T23:28:53.362Z,16.72
2022-09-07T23:31:22.264Z,16.71
2022-09-07T23:33:50.214Z,16.67
2022-09-07T23:36:18.950Z,16.65
2022-09-07T23:38:46.834Z,16.64
2022-09-07T23:41:14.690Z,16.60
2022-09-07T23:43:42.697Z,16.58
2022-09-07T23:46:11.578Z,16.53
2022-09-07T23:48:39.529Z,16.53
2022-09-07T23:51:07.057Z,16.54
2022-09-07T23:53:35.072Z,16.53
2022-09-07T23:56:05.826Z,16.54
2022-09-07T23:58:33.559Z,16.56
